sensor_id;sensor_type;location;lat;lon;timestamp;P1;durP1;ratioP1;P2;durP2;ratioP2
17844;SDS011;9047;53.486;10.218;2022-08-19T00:17:48;19.75;;;13.50;;
17844;SDS011;9047;53.486;10.218;2022-08-19T00:28:00;19.83;;;14.93;;
17844;SDS011;9047;53.486;10.218;2022-08-19T00:52:45;21.60;;;14.40;;
17844;SDS011;9047;53.486;10.218;2022-08-19T00:55:10;19.15;;;13.95;;
17844;SDS011;9047;53.486;10.218;2022-08-19T02:00:09;36.83;;;22.38;;
17844;SDS011;9047;53.486;10.218;2022-08-19T02:03:23;37.65;;;23.02;;
17844;SDS011;9047;53.486;10.218;2022-08-19T02:09:48;34.58;;;22.65;;
17844;SDS011;9047;53.486;10.218;2022-08-19T02:12:31;31.02;;;20.67;;
17844;SDS011;9047;53.486;10.218;2022-08-19T02:18:28;37.75;;;24.88;;
17844;SDS011;9047;53.486;10.218;2022-08-19T02:38:45;31.30;;;21.40;;
17844;SDS011;9047;53.486;10.218;2022-08-19T02:41:20;34.28;;;22.17;;
17844;SDS011;9047;53.486;10.218;2022-08-19T02:44:08;31.58;;;21.10;;
17844;SDS011;9047;53.486;10.218;2022-08-19T03:00:36;27.92;;;18.83;;
17844;SDS011;9047;53.486;10.218;2022-08-19T03:03:32;27.65;;;18.30;;
17844;SDS011;9047;53.486;10.218;2022-08-19T03:09:56;32.13;;;18.95;;
17844;SDS011;9047;53.486;10.218;2022-08-19T03:29:32;28.65;;;18.27;;
17844;SDS011;9047;53.486;10.218;2022-08-19T03:35:12;28.88;;;17.70;;
17844;SDS011;9047;53.486;10.218;2022-08-19T03:38:02;30.48;;;18.38;;
17844;SDS011;9047;53.486;10.218;2022-08-19T03:41:35;30.60;;;18.83;;
17844;SDS011;9047;53.486;10.218;2022-08-19T04:21:49;29.75;;;17.08;;
17844;SDS011;9047;53.486;10.218;2022-08-19T04:24:32;28.98;;;17.15;;
17844;SDS011;9047;53.486;10.218;2022-08-19T04:27:30;32.85;;;17.73;;
17844;SDS011;9047;53.486;10.218;2022-08-19T04:30:30;35.05;;;19.40;;
17844;SDS011;9047;53.486;10.218;2022-08-19T04:34:04;28.30;;;16.73;;
17844;SDS011;9047;53.486;10.218;2022-08-19T04:47:48;41.85;;;21.95;;
17844;SDS011;9047;53.486;10.218;2022-08-19T04:57:19;42.33;;;22.17;;
17844;SDS011;9047;53.486;10.218;2022-08-19T05:00:30;36.08;;;19.33;;
17844;SDS011;9047;53.486;10.218;2022-08-19T05:03:26;34.80;;;19.42;;
17844;SDS011;9047;53.486;10.218;2022-08-19T05:06:27;44.10;;;22.80;;
17844;SDS011;9047;53.486;10.218;2022-08-19T05:09:16;41.78;;;22.15;;
17844;SDS011;9047;53.486;10.218;2022-08-19T05:13:42;38.53;;;20.95;;
17844;SDS011;9047;53.486;10.218;2022-08-19T05:15:54;35.47;;;19.88;;
17844;SDS011;9047;53.486;10.218;2022-08-19T05:25:06;40.53;;;22.58;;
17844;SDS011;9047;53.486;10.218;2022-08-19T05:28:01;41.92;;;22.80;;
17844;SDS011;9047;53.486;10.218;2022-08-19T05:34:21;50.67;;;26.15;;
17844;SDS011;9047;53.486;10.218;2022-08-19T05:37:12;46.97;;;25.73;;
17844;SDS011;9047;53.486;10.218;2022-08-19T05:43:33;50.42;;;27.02;;
17844;SDS011;9047;53.486;10.218;2022-08-19T05:46:07;54.15;;;27.17;;
17844;SDS011;9047;53.486;10.218;2022-08-19T05:52:45;62.72;;;29.38;;
17844;SDS011;9047;53.486;10.218;2022-08-19T05:55:57;57.92;;;30.23;;
17844;SDS011;9047;53.486;10.218;2022-08-19T06:11:49;56.38;;;28.40;;
17844;SDS011;9047;53.486;10.218;2022-08-19T06:15:01;51.83;;;28.48;;
17844;SDS011;9047;53.486;10.218;2022-08-19T06:18:24;58.72;;;29.40;;
17844;SDS011;9047;53.486;10.218;2022-08-19T06:21:02;54.58;;;28.05;;
17844;SDS011;9047;53.486;10.218;2022-08-19T06:24:24;54.70;;;26.70;;
17844;SDS011;9047;53.486;10.218;2022-08-19T06:27:23;58.20;;;29.73;;
17844;SDS011;9047;53.486;10.218;2022-08-19T06:33:23;59.30;;;30.33;;
17844;SDS011;9047;53.486;10.218;2022-08-19T06:36:06;55.88;;;28.60;;
17844;SDS011;9047;53.486;10.218;2022-08-19T06:39:00;52.45;;;27.15;;
17844;SDS011;9047;53.486;10.218;2022-08-19T06:55:11;49.97;;;25.83;;
17844;SDS011;9047;53.486;10.218;2022-08-19T07:01:10;57.40;;;27.90;;
17844;SDS011;9047;53.486;10.218;2022-08-19T07:14:32;46.80;;;26.38;;
17844;SDS011;9047;53.486;10.218;2022-08-19T07:41:24;40.05;;;21.67;;
17844;SDS011;9047;53.486;10.218;2022-08-19T07:43:46;44.30;;;22.98;;
17844;SDS011;9047;53.486;10.218;2022-08-19T07:46:21;35.80;;;21.55;;
17844;SDS011;9047;53.486;10.218;2022-08-19T07:49:16;37.53;;;20.92;;
17844;SDS011;9047;53.486;10.218;2022-08-19T07:51:58;39.95;;;21.92;;
17844;SDS011;9047;53.486;10.218;2022-08-19T07:54:52;40.30;;;22.70;;
17844;SDS011;9047;53.486;10.218;2022-08-19T07:57:25;41.90;;;22.33;;
17844;SDS011;9047;53.486;10.218;2022-08-19T08:00:07;45.63;;;24.92;;
17844;SDS011;9047;53.486;10.218;2022-08-19T08:02:56;42.45;;;24.42;;
17844;SDS011;9047;53.486;10.218;2022-08-19T08:05:54;47.20;;;26.38;;
17844;SDS011;9047;53.486;10.218;2022-08-19T08:12:14;41.85;;;23.70;;
17844;SDS011;9047;53.486;10.218;2022-08-19T08:14:53;48.08;;;26.52;;
17844;SDS011;9047;53.486;10.218;2022-08-19T08:17:30;51.47;;;27.30;;
17844;SDS011;9047;53.486;10.218;2022-08-19T08:22:58;44.45;;;24.75;;
17844;SDS011;9047;53.486;10.218;2022-08-19T08:26:23;47.47;;;25.10;;
17844;SDS011;9047;53.486;10.218;2022-08-19T08:29:34;42.08;;;25.05;;
17844;SDS011;9047;53.486;10.218;2022-08-19T08:32:37;46.35;;;25.58;;
17844;SDS011;9047;53.486;10.218;2022-08-19T08:35:28;39.88;;;23.83;;
17844;SDS011;9047;53.486;10.218;2022-08-19T08:38:35;41.42;;;23.95;;
17844;SDS011;9047;53.486;10.218;2022-08-19T08:41:14;40.97;;;24.05;;
17844;SDS011;9047;53.486;10.218;2022-08-19T08:44:01;39.25;;;22.17;;
17844;SDS011;9047;53.486;10.218;2022-08-19T08:56:06;37.20;;;21.38;;
17844;SDS011;9047;53.486;10.218;2022-08-19T09:02:08;34.03;;;21.08;;
17844;SDS011;9047;53.486;10.218;2022-08-19T09:04:43;32.20;;;19.60;;
17844;SDS011;9047;53.486;10.218;2022-08-19T09:10:37;33.20;;;19.08;;
17844;SDS011;9047;53.486;10.218;2022-08-19T09:13:28;33.42;;;18.67;;
17844;SDS011;9047;53.486;10.218;2022-08-19T09:16:20;31.42;;;17.13;;
17844;SDS011;9047;53.486;10.218;2022-08-19T09:18:55;34.00;;;18.70;;
17844;SDS011;9047;53.486;10.218;2022-08-19T09:24:40;32.53;;;19.35;;
17844;SDS011;9047;53.486;10.218;2022-08-19T09:27:40;31.88;;;17.90;;
17844;SDS011;9047;53.486;10.218;2022-08-19T09:30:15;33.42;;;18.27;;
17844;SDS011;9047;53.486;10.218;2022-08-19T09:36:05;29.48;;;17.30;;
17844;SDS011;9047;53.486;10.218;2022-08-19T09:38:47;30.27;;;18.17;;
17844;SDS011;9047;53.486;10.218;2022-08-19T09:41:33;32.38;;;17.95;;
17844;SDS011;9047;53.486;10.218;2022-08-19T09:44:21;32.38;;;18.48;;
17844;SDS011;9047;53.486;10.218;2022-08-19T09:46:51;34.92;;;18.60;;
17844;SDS011;9047;53.486;10.218;2022-08-19T09:49:22;32.60;;;19.60;;
17844;SDS011;9047;53.486;10.218;2022-08-19T09:55:15;35.95;;;18.73;;
17844;SDS011;9047;53.486;10.218;2022-08-19T09:57:56;33.33;;;18.58;;
17844;SDS011;9047;53.486;10.218;2022-08-19T10:03:17;33.58;;;18.70;;
17844;SDS011;9047;53.486;10.218;2022-08-19T10:05:54;32.70;;;18.30;;
17844;SDS011;9047;53.486;10.218;2022-08-19T10:08:36;29.90;;;17.42;;
17844;SDS011;9047;53.486;10.218;2022-08-19T10:11:22;30.10;;;18.75;;
17844;SDS011;9047;53.486;10.218;2022-08-19T10:14:22;30.20;;;18.58;;
17844;SDS011;9047;53.486;10.218;2022-08-19T10:16:58;32.33;;;19.23;;
17844;SDS011;9047;53.486;10.218;2022-08-19T10:19:36;31.23;;;17.65;;
17844;SDS011;9047;53.486;10.218;2022-08-19T10:22:18;34.20;;;19.17;;
17844;SDS011;9047;53.486;10.218;2022-08-19T10:24:48;36.85;;;19.75;;
17844;SDS011;9047;53.486;10.218;2022-08-19T10:27:25;37.28;;;20.27;;
17844;SDS011;9047;53.486;10.218;2022-08-19T10:47:50;28.98;;;16.80;;
17844;SDS011;9047;53.486;10.218;2022-08-19T10:50:39;36.92;;;18.13;;
17844;SDS011;9047;53.486;10.218;2022-08-19T10:53:32;35.03;;;18.63;;
17844;SDS011;9047;53.486;10.218;2022-08-19T10:59:42;28.60;;;16.70;;
17844;SDS011;9047;53.486;10.218;2022-08-19T11:02:27;28.45;;;17.80;;
17844;SDS011;9047;53.486;10.218;2022-08-19T11:11:43;33.20;;;18.27;;
17844;SDS011;9047;53.486;10.218;2022-08-19T11:14:51;33.78;;;19.25;;
17844;SDS011;9047;53.486;10.218;2022-08-19T11:18:00;32.20;;;18.33;;
17844;SDS011;9047;53.486;10.218;2022-08-19T11:23:56;29.73;;;18.52;;
17844;SDS011;9047;53.486;10.218;2022-08-19T11:27:08;32.15;;;18.48;;
17844;SDS011;9047;53.486;10.218;2022-08-19T11:29:55;28.38;;;16.83;;
17844;SDS011;9047;53.486;10.218;2022-08-19T11:32:25;26.67;;;16.40;;
17844;SDS011;9047;53.486;10.218;2022-08-19T11:35:02;32.55;;;17.90;;
17844;SDS011;9047;53.486;10.218;2022-08-19T11:38:12;29.20;;;16.95;;
17844;SDS011;9047;53.486;10.218;2022-08-19T11:40:53;31.90;;;18.13;;
17844;SDS011;9047;53.486;10.218;2022-08-19T11:43:21;28.95;;;17.27;;
17844;SDS011;9047;53.486;10.218;2022-08-19T11:46:03;31.00;;;18.35;;
17844;SDS011;9047;53.486;10.218;2022-08-19T11:48:38;25.38;;;15.60;;
17844;SDS011;9047;53.486;10.218;2022-08-19T11:51:18;28.55;;;17.80;;
17844;SDS011;9047;53.486;10.218;2022-08-19T11:58:03;27.38;;;17.63;;
17844;SDS011;9047;53.486;10.218;2022-08-19T12:00:49;30.67;;;18.45;;
17844;SDS011;9047;53.486;10.218;2022-08-19T12:03:18;34.42;;;19.33;;
17844;SDS011;9047;53.486;10.218;2022-08-19T12:05:48;33.92;;;19.08;;
17844;SDS011;9047;53.486;10.218;2022-08-19T12:08:30;32.53;;;20.05;;
17844;SDS011;9047;53.486;10.218;2022-08-19T12:17:34;33.03;;;19.63;;
17844;SDS011;9047;53.486;10.218;2022-08-19T12:27:10;30.05;;;17.55;;
17844;SDS011;9047;53.486;10.218;2022-08-19T12:37:26;30.25;;;18.00;;
17844;SDS011;9047;53.486;10.218;2022-08-19T12:43:36;24.90;;;15.52;;
17844;SDS011;9047;53.486;10.218;2022-08-19T12:46:40;23.90;;;15.73;;
17844;SDS011;9047;53.486;10.218;2022-08-19T12:53:35;26.10;;;16.25;;
17844;SDS011;9047;53.486;10.218;2022-08-19T12:56:44;25.05;;;16.33;;
17844;SDS011;9047;53.486;10.218;2022-08-19T12:59:40;24.13;;;14.98;;
17844;SDS011;9047;53.486;10.218;2022-08-19T13:08:25;20.35;;;14.10;;
17844;SDS011;9047;53.486;10.218;2022-08-19T13:09:41;20.20;;;13.60;;
17844;SDS011;9047;53.486;10.218;2022-08-19T13:12:37;20.33;;;13.35;;
17844;SDS011;9047;53.486;10.218;2022-08-19T13:15:27;17.65;;;12.55;;
17844;SDS011;9047;53.486;10.218;2022-08-19T13:18:21;17.00;;;12.68;;
17844;SDS011;9047;53.486;10.218;2022-08-19T13:21:01;17.10;;;12.15;;
17844;SDS011;9047;53.486;10.218;2022-08-19T13:23:36;16.13;;;12.23;;
17844;SDS011;9047;53.486;10.218;2022-08-19T13:26:25;17.25;;;12.00;;
17844;SDS011;9047;53.486;10.218;2022-08-19T13:28:52;20.83;;;13.13;;
17844;SDS011;9047;53.486;10.218;2022-08-19T13:34:52;19.55;;;13.55;;
17844;SDS011;9047;53.486;10.218;2022-08-19T13:37:46;18.33;;;12.73;;
17844;SDS011;9047;53.486;10.218;2022-08-19T13:40:14;16.90;;;12.98;;
17844;SDS011;9047;53.486;10.218;2022-08-19T13:42:54;16.02;;;12.43;;
17844;SDS011;9047;53.486;10.218;2022-08-19T13:46:13;16.10;;;11.90;;
17844;SDS011;9047;53.486;10.218;2022-08-19T13:49:10;15.85;;;11.25;;
17844;SDS011;9047;53.486;10.218;2022-08-19T13:52:35;16.98;;;11.18;;
17844;SDS011;9047;53.486;10.218;2022-08-19T14:01:19;15.88;;;11.23;;
17844;SDS011;9047;53.486;10.218;2022-08-19T14:04:01;17.27;;;12.23;;
17844;SDS011;9047;53.486;10.218;2022-08-19T14:06:31;18.00;;;12.20;;
17844;SDS011;9047;53.486;10.218;2022-08-19T14:08:59;16.10;;;11.90;;
17844;SDS011;9047;53.486;10.218;2022-08-19T14:11:34;17.73;;;11.88;;
17844;SDS011;9047;53.486;10.218;2022-08-19T14:14:05;12.93;;;11.35;;
17844;SDS011;9047;53.486;10.218;2022-08-19T14:20:41;15.55;;;11.80;;
17844;SDS011;9047;53.486;10.218;2022-08-19T14:30:16;15.20;;;11.90;;
17844;SDS011;9047;53.486;10.218;2022-08-19T14:33:14;14.75;;;11.48;;
17844;SDS011;9047;53.486;10.218;2022-08-19T14:36:23;14.70;;;12.15;;
17844;SDS011;9047;53.486;10.218;2022-08-19T14:48:53;12.98;;;10.52;;
17844;SDS011;9047;53.486;10.218;2022-08-19T14:51:40;15.80;;;11.45;;
17844;SDS011;9047;53.486;10.218;2022-08-19T14:54:15;13.05;;;10.07;;
17844;SDS011;9047;53.486;10.218;2022-08-19T14:57:07;13.40;;;9.98;;
17844;SDS011;9047;53.486;10.218;2022-08-19T15:00:22;13.60;;;11.27;;
17844;SDS011;9047;53.486;10.218;2022-08-19T15:03:25;11.70;;;9.68;;
17844;SDS011;9047;53.486;10.218;2022-08-19T15:06:03;14.75;;;11.18;;
17844;SDS011;9047;53.486;10.218;2022-08-19T15:08:35;13.70;;;11.15;;
17844;SDS011;9047;53.486;10.218;2022-08-19T15:11:10;13.93;;;10.82;;
17844;SDS011;9047;53.486;10.218;2022-08-19T15:13:46;13.40;;;10.48;;
17844;SDS011;9047;53.486;10.218;2022-08-19T15:16:13;14.70;;;11.65;;
17844;SDS011;9047;53.486;10.218;2022-08-19T15:18:49;15.25;;;11.73;;
17844;SDS011;9047;53.486;10.218;2022-08-19T15:21:18;14.07;;;11.07;;
17844;SDS011;9047;53.486;10.218;2022-08-19T15:23:48;12.52;;;10.00;;
17844;SDS011;9047;53.486;10.218;2022-08-19T15:26:19;15.80;;;10.50;;
17844;SDS011;9047;53.486;10.218;2022-08-19T15:31:33;13.38;;;11.30;;
17844;SDS011;9047;53.486;10.218;2022-08-19T15:34:03;13.13;;;10.90;;
17844;SDS011;9047;53.486;10.218;2022-08-19T15:39:54;12.90;;;10.98;;
17844;SDS011;9047;53.486;10.218;2022-08-19T15:42:28;12.57;;;9.50;;
17844;SDS011;9047;53.486;10.218;2022-08-19T15:45:10;13.05;;;11.13;;
17844;SDS011;9047;53.486;10.218;2022-08-19T15:47:48;12.77;;;10.43;;
17844;SDS011;9047;53.486;10.218;2022-08-19T15:53:57;14.50;;;11.45;;
17844;SDS011;9047;53.486;10.218;2022-08-19T15:56:55;12.65;;;10.77;;
17844;SDS011;9047;53.486;10.218;2022-08-19T16:00:08;13.90;;;11.18;;
17844;SDS011;9047;53.486;10.218;2022-08-19T16:03:07;13.50;;;11.23;;
17844;SDS011;9047;53.486;10.218;2022-08-19T16:06:10;15.00;;;11.82;;
17844;SDS011;9047;53.486;10.218;2022-08-19T16:12:02;15.43;;;12.48;;
17844;SDS011;9047;53.486;10.218;2022-08-19T16:14:40;14.02;;;11.80;;
17844;SDS011;9047;53.486;10.218;2022-08-19T16:20:09;14.38;;;12.88;;
17844;SDS011;9047;53.486;10.218;2022-08-19T16:22:58;16.23;;;13.68;;
17844;SDS011;9047;53.486;10.218;2022-08-19T16:26:12;16.95;;;12.57;;
17844;SDS011;9047;53.486;10.218;2022-08-19T16:28:58;14.70;;;12.07;;
17844;SDS011;9047;53.486;10.218;2022-08-19T16:34:44;15.93;;;12.10;;
17844;SDS011;9047;53.486;10.218;2022-08-19T16:37:25;13.10;;;11.27;;
17844;SDS011;9047;53.486;10.218;2022-08-19T16:40:09;13.30;;;11.45;;
17844;SDS011;9047;53.486;10.218;2022-08-19T16:43:04;12.95;;;10.85;;
17844;SDS011;9047;53.486;10.218;2022-08-19T16:48:36;14.07;;;11.82;;
17844;SDS011;9047;53.486;10.218;2022-08-19T16:51:23;12.75;;;10.82;;
17844;SDS011;9047;53.486;10.218;2022-08-19T16:54:04;12.00;;;9.63;;
17844;SDS011;9047;53.486;10.218;2022-08-19T16:57:04;12.98;;;10.63;;
17844;SDS011;9047;53.486;10.218;2022-08-19T17:00:04;12.95;;;10.45;;
17844;SDS011;9047;53.486;10.218;2022-08-19T17:02:46;12.80;;;10.10;;
17844;SDS011;9047;53.486;10.218;2022-08-19T17:08:43;12.30;;;10.00;;
17844;SDS011;9047;53.486;10.218;2022-08-19T17:14:54;10.75;;;9.18;;
17844;SDS011;9047;53.486;10.218;2022-08-19T17:17:37;11.82;;;9.10;;
17844;SDS011;9047;53.486;10.218;2022-08-19T17:20:16;10.35;;;9.10;;
17844;SDS011;9047;53.486;10.218;2022-08-19T17:23:16;9.95;;;8.35;;
17844;SDS011;9047;53.486;10.218;2022-08-19T17:25:48;10.90;;;8.73;;
17844;SDS011;9047;53.486;10.218;2022-08-19T17:28:21;10.20;;;9.05;;
17844;SDS011;9047;53.486;10.218;2022-08-19T17:31:07;10.30;;;8.95;;
17844;SDS011;9047;53.486;10.218;2022-08-19T17:33:39;10.93;;;9.00;;
17844;SDS011;9047;53.486;10.218;2022-08-19T17:36:10;9.55;;;8.50;;
17844;SDS011;9047;53.486;10.218;2022-08-19T17:38:38;11.27;;;9.05;;
17844;SDS011;9047;53.486;10.218;2022-08-19T17:41:11;9.52;;;8.57;;
17844;SDS011;9047;53.486;10.218;2022-08-19T17:43:39;10.65;;;8.98;;
17844;SDS011;9047;53.486;10.218;2022-08-19T17:46:09;9.80;;;8.80;;
17844;SDS011;9047;53.486;10.218;2022-08-19T17:48:42;10.27;;;9.10;;
17844;SDS011;9047;53.486;10.218;2022-08-19T17:51:14;10.25;;;8.80;;
17844;SDS011;9047;53.486;10.218;2022-08-19T17:53:42;10.77;;;8.85;;
17844;SDS011;9047;53.486;10.218;2022-08-19T17:56:13;9.18;;;8.18;;
17844;SDS011;9047;53.486;10.218;2022-08-19T17:58:50;10.65;;;8.40;;
17844;SDS011;9047;53.486;10.218;2022-08-19T18:01:23;11.77;;;8.57;;
17844;SDS011;9047;53.486;10.218;2022-08-19T18:03:52;10.25;;;9.02;;
17844;SDS011;9047;53.486;10.218;2022-08-19T18:06:19;10.30;;;8.45;;
17844;SDS011;9047;53.486;10.218;2022-08-19T18:08:47;10.93;;;8.55;;
17844;SDS011;9047;53.486;10.218;2022-08-19T18:11:25;11.73;;;8.13;;
17844;SDS011;9047;53.486;10.218;2022-08-19T18:17:22;10.32;;;8.20;;
17844;SDS011;9047;53.486;10.218;2022-08-19T18:20:03;10.52;;;8.80;;
17844;SDS011;9047;53.486;10.218;2022-08-19T18:22:51;12.38;;;9.35;;
17844;SDS011;9047;53.486;10.218;2022-08-19T18:25:32;9.90;;;7.75;;
17844;SDS011;9047;53.486;10.218;2022-08-19T18:28:03;12.18;;;9.15;;
17844;SDS011;9047;53.486;10.218;2022-08-19T18:30:46;12.23;;;9.45;;
17844;SDS011;9047;53.486;10.218;2022-08-19T18:43:25;10.95;;;9.40;;
17844;SDS011;9047;53.486;10.218;2022-08-19T18:46:17;10.93;;;9.00;;
17844;SDS011;9047;53.486;10.218;2022-08-19T18:49:07;11.13;;;8.88;;
17844;SDS011;9047;53.486;10.218;2022-08-19T18:54:48;11.52;;;9.10;;
17844;SDS011;9047;53.486;10.218;2022-08-19T18:57:28;10.95;;;9.52;;
17844;SDS011;9047;53.486;10.218;2022-08-19T19:00:05;11.60;;;10.40;;
17844;SDS011;9047;53.486;10.218;2022-08-19T19:02:48;13.57;;;10.73;;
17844;SDS011;9047;53.486;10.218;2022-08-19T19:05:40;13.27;;;10.75;;
17844;SDS011;9047;53.486;10.218;2022-08-19T19:11:30;13.68;;;11.40;;
17844;SDS011;9047;53.486;10.218;2022-08-19T19:14:19;12.05;;;10.55;;
17844;SDS011;9047;53.486;10.218;2022-08-19T19:17:31;12.27;;;10.23;;
17844;SDS011;9047;53.486;10.218;2022-08-19T19:20:14;12.15;;;10.73;;
17844;SDS011;9047;53.486;10.218;2022-08-19T19:23:23;11.50;;;10.30;;
17844;SDS011;9047;53.486;10.218;2022-08-19T19:26:32;12.75;;;10.68;;
17844;SDS011;9047;53.486;10.218;2022-08-19T19:29:51;13.02;;;11.23;;
17844;SDS011;9047;53.486;10.218;2022-08-19T19:32:55;14.30;;;12.45;;
17844;SDS011;9047;53.486;10.218;2022-08-19T19:38:51;13.93;;;12.25;;
17844;SDS011;9047;53.486;10.218;2022-08-19T19:41:26;18.75;;;15.68;;
17844;SDS011;9047;53.486;10.218;2022-08-19T19:44:22;22.73;;;17.88;;
17844;SDS011;9047;53.486;10.218;2022-08-19T19:47:04;22.27;;;17.30;;
17844;SDS011;9047;53.486;10.218;2022-08-19T19:49:47;17.98;;;14.05;;
17844;SDS011;9047;53.486;10.218;2022-08-19T19:52:27;16.35;;;13.88;;
17844;SDS011;9047;53.486;10.218;2022-08-19T19:54:56;17.83;;;13.93;;
17844;SDS011;9047;53.486;10.218;2022-08-19T20:00:31;19.92;;;15.75;;
17844;SDS011;9047;53.486;10.218;2022-08-19T20:03:16;19.85;;;14.82;;
17844;SDS011;9047;53.486;10.218;2022-08-19T20:09:35;17.52;;;15.55;;
17844;SDS011;9047;53.486;10.218;2022-08-19T20:12:08;19.13;;;16.02;;
17844;SDS011;9047;53.486;10.218;2022-08-19T20:14:39;19.05;;;16.17;;
17844;SDS011;9047;53.486;10.218;2022-08-19T20:17:42;19.55;;;15.98;;
17844;SDS011;9047;53.486;10.218;2022-08-19T20:20:26;19.48;;;16.15;;
17844;SDS011;9047;53.486;10.218;2022-08-19T20:26:33;23.60;;;18.35;;
17844;SDS011;9047;53.486;10.218;2022-08-19T20:32:33;21.63;;;17.95;;
17844;SDS011;9047;53.486;10.218;2022-08-19T20:35:36;23.17;;;17.88;;
17844;SDS011;9047;53.486;10.218;2022-08-19T20:38:43;20.42;;;17.30;;
17844;SDS011;9047;53.486;10.218;2022-08-19T20:44:42;22.52;;;17.23;;
17844;SDS011;9047;53.486;10.218;2022-08-19T20:48:03;23.25;;;18.45;;
17844;SDS011;9047;53.486;10.218;2022-08-19T20:50:51;23.40;;;18.40;;
17844;SDS011;9047;53.486;10.218;2022-08-19T20:56:44;21.73;;;18.08;;
17844;SDS011;9047;53.486;10.218;2022-08-19T21:05:56;21.85;;;18.40;;
17844;SDS011;9047;53.486;10.218;2022-08-19T21:08:44;22.02;;;18.55;;
17844;SDS011;9047;53.486;10.218;2022-08-19T21:11:22;23.30;;;17.58;;
17844;SDS011;9047;53.486;10.218;2022-08-19T21:14:13;22.77;;;18.65;;
17844;SDS011;9047;53.486;10.218;2022-08-19T21:17:13;21.92;;;18.45;;
17844;SDS011;9047;53.486;10.218;2022-08-19T21:20:19;23.42;;;18.88;;
17844;SDS011;9047;53.486;10.218;2022-08-19T21:23:12;22.90;;;19.00;;
17844;SDS011;9047;53.486;10.218;2022-08-19T21:26:20;24.58;;;19.17;;
17844;SDS011;9047;53.486;10.218;2022-08-19T21:29:37;27.60;;;21.27;;
17844;SDS011;9047;53.486;10.218;2022-08-19T21:32:24;29.35;;;21.73;;
17844;SDS011;9047;53.486;10.218;2022-08-19T21:35:36;26.23;;;21.38;;
17844;SDS011;9047;53.486;10.218;2022-08-19T21:38:13;26.08;;;21.75;;
17844;SDS011;9047;53.486;10.218;2022-08-19T21:41:24;25.23;;;20.88;;
17844;SDS011;9047;53.486;10.218;2022-08-19T21:47:30;26.88;;;21.35;;
17844;SDS011;9047;53.486;10.218;2022-08-19T21:50:26;27.02;;;20.98;;
17844;SDS011;9047;53.486;10.218;2022-08-19T21:56:37;27.27;;;21.38;;
17844;SDS011;9047;53.486;10.218;2022-08-19T22:02:15;27.20;;;20.75;;
17844;SDS011;9047;53.486;10.218;2022-08-19T22:05:00;25.95;;;20.75;;
17844;SDS011;9047;53.486;10.218;2022-08-19T22:07:57;28.00;;;21.10;;
17844;SDS011;9047;53.486;10.218;2022-08-19T22:10:34;27.42;;;21.13;;
17844;SDS011;9047;53.486;10.218;2022-08-19T22:13:21;25.23;;;20.55;;
17844;SDS011;9047;53.486;10.218;2022-08-19T22:17:07;30.33;;;23.85;;
17844;SDS011;9047;53.486;10.218;2022-08-19T22:19:30;31.27;;;24.40;;
17844;SDS011;9047;53.486;10.218;2022-08-19T22:22:08;30.63;;;23.85;;
17844;SDS011;9047;53.486;10.218;2022-08-19T22:25:04;28.42;;;22.88;;
17844;SDS011;9047;53.486;10.218;2022-08-19T22:31:06;30.15;;;22.70;;
17844;SDS011;9047;53.486;10.218;2022-08-19T22:34:11;30.00;;;22.60;;
17844;SDS011;9047;53.486;10.218;2022-08-19T22:37:12;31.10;;;23.60;;
17844;SDS011;9047;53.486;10.218;2022-08-19T22:40:12;33.25;;;25.38;;
17844;SDS011;9047;53.486;10.218;2022-08-19T22:59:54;35.17;;;26.85;;
17844;SDS011;9047;53.486;10.218;2022-08-19T23:02:25;34.17;;;26.65;;
17844;SDS011;9047;53.486;10.218;2022-08-19T23:05:15;34.10;;;24.80;;
17844;SDS011;9047;53.486;10.218;2022-08-19T23:07:58;34.58;;;25.38;;
17844;SDS011;9047;53.486;10.218;2022-08-19T23:10:41;37.80;;;26.33;;
17844;SDS011;9047;53.486;10.218;2022-08-19T23:13:40;34.15;;;25.52;;
17844;SDS011;9047;53.486;10.218;2022-08-19T23:19:55;33.85;;;25.98;;
17844;SDS011;9047;53.486;10.218;2022-08-19T23:22:40;35.03;;;26.63;;
17844;SDS011;9047;53.486;10.218;2022-08-19T23:25:51;31.20;;;23.90;;
17844;SDS011;9047;53.486;10.218;2022-08-19T23:28:23;38.17;;;28.05;;
17844;SDS011;9047;53.486;10.218;2022-08-19T23:31:31;38.55;;;26.85;;
17844;SDS011;9047;53.486;10.218;2022-08-19T23:34:09;37.28;;;27.13;;
17844;SDS011;9047;53.486;10.218;2022-08-19T23:37:02;41.38;;;29.65;;
17844;SDS011;9047;53.486;10.218;2022-08-19T23:39:59;40.10;;;27.75;;
17844;SDS011;9047;53.486;10.218;2022-08-19T23:43:52;37.45;;;27.15;;
17844;SDS011;9047;53.486;10.218;2022-08-19T23:53:07;41.03;;;28.95;;
17844;SDS011;9047;53.486;10.218;2022-08-19T23:55:48;45.08;;;30.73;;
17844;SDS011;9047;53.486;10.218;2022-08-19T23:58:36;45.90;;;30.65;;
